Time;durP1;ratioP1;P1;durP2;ratioP2;P2;SDS_P1;SDS_P2;PMS_P1;PMS_P2;Temp;Humidity;BMP_temperature;BMP_pressure;BME280_temperature;BME280_humidity;BME280_pressure;Samples;Min_cycle;Max_cycle;Signal;HPM_P1;HPM_P2
2022/11/01 00:01:33;;;;;;;;;1.00;1.00;;;;;;;;5124628;27;8835;-79
2022/11/01 00:04:00;;;;;;;;;1.00;1.00;;;;;;;;5106702;27;8847;-79
2022/11/01 00:06:27;;;;;;;;;0.75;0.75;;;;;;;;5127606;27;8951;-80
2022/11/01 00:08:56;;;;;;;;;1.75;0.00;;;;;;;;5107946;27;8856;-79
2022/11/01 00:11:24;;;;;;;;;0.00;0.00;;;;;;;;5124668;27;8944;-79
2022/11/01 00:13:51;;;;;;;;;0.00;0.00;;;;;;;;5125344;27;8922;-79
2022/11/01 00:16:20;;;;;;;;;1.00;1.00;;;;;;;;5127141;27;8905;-80
2022/11/01 00:18:48;;;;;;;;;3.00;1.00;;;;;;;;5127032;27;8856;-79
2022/11/01 00:21:16;;;;;;;;;0.75;0.75;;;;;;;;5113170;27;8954;-79
2022/11/01 00:23:44;;;;;;;;;1.75;1.75;;;;;;;;5111682;27;8835;-79
2022/11/01 00:26:16;;;;;;;;;1.00;1.00;;;;;;;;5131580;27;8837;-79
2022/11/01 00:28:43;;;;;;;;;0.00;0.00;;;;;;;;5131146;27;8856;-78
2022/11/01 00:31:11;;;;;;;;;0.00;0.00;;;;;;;;5109356;27;8824;-79
2022/11/01 00:33:41;;;;;;;;;0.50;0.50;;;;;;;;5105163;27;8820;-79
2022/11/01 00:36:09;;;;;;;;;1.00;1.00;;;;;;;;5129664;27;8831;-78
2022/11/01 00:38:40;;;;;;;;;0.00;0.00;;;;;;;;5125156;27;8990;-78
2022/11/01 00:41:10;;;;;;;;;0.75;0.75;;;;;;;;5123403;27;8830;-78
2022/11/01 00:43:39;;;;;;;;;0.50;0.50;;;;;;;;5125196;27;8846;-78
2022/11/01 00:46:06;;;;;;;;;0.00;0.00;;;;;;;;5104525;27;8853;-78
2022/11/01 00:48:34;;;;;;;;;0.00;0.00;;;;;;;;5125598;27;8861;-78
2022/11/01 00:51:01;;;;;;;;;0.25;0.25;;;;;;;;5104139;27;8845;-78
2022/11/01 00:53:28;;;;;;;;;1.00;1.00;;;;;;;;5106797;27;8859;-78
2022/11/01 00:56:01;;;;;;;;;3.00;0.00;;;;;;;;5124720;27;9595;-78
2022/11/01 00:58:28;;;;;;;;;3.00;0.00;;;;;;;;5127520;27;8832;-79
2022/11/01 01:00:57;;;;;;;;;0.00;0.00;;;;;;;;5124708;27;9627;-79
2022/11/01 01:03:25;;;;;;;;;1.75;0.00;;;;;;;;5129724;27;8896;-79
2022/11/01 01:05:53;;;;;;;;;0.00;0.00;;;;;;;;5111823;27;8834;-79
2022/11/01 01:08:21;;;;;;;;;0.50;0.00;;;;;;;;5127077;27;8850;-78
2022/11/01 01:10:49;;;;;;;;;0.00;0.00;;;;;;;;5122183;27;8852;-78
2022/11/01 01:13:17;;;;;;;;;0.00;0.00;;;;;;;;5105141;27;8838;-79
2022/11/01 01:15:45;;;;;;;;;0.00;0.00;;;;;;;;5106116;27;8829;-78
2022/11/01 01:18:14;;;;;;;;;0.00;0.00;;;;;;;;5128423;27;8824;-78
2022/11/01 01:20:41;;;;;;;;;0.00;0.00;;;;;;;;5125725;27;8832;-77
2022/11/01 01:23:09;;;;;;;;;0.00;0.00;;;;;;;;5122459;27;8796;-77
2022/11/01 01:25:40;;;;;;;;;0.00;0.00;;;;;;;;5123669;27;8840;-77
2022/11/01 01:28:07;;;;;;;;;0.00;0.00;;;;;;;;5123529;27;8854;-77
2022/11/01 01:30:35;;;;;;;;;2.00;0.00;;;;;;;;5107045;27;8857;-78
2022/11/01 01:33:02;;;;;;;;;0.00;0.00;;;;;;;;5124024;27;8841;-78
2022/11/01 01:35:34;;;;;;;;;0.00;0.00;;;;;;;;5127652;27;8863;-78
2022/11/01 01:38:02;;;;;;;;;0.00;0.00;;;;;;;;5117529;27;8859;-78
2022/11/01 01:40:29;;;;;;;;;0.00;0.00;;;;;;;;5105695;27;8843;-77
2022/11/01 01:42:56;;;;;;;;;1.00;0.00;;;;;;;;5122452;27;8970;-77
2022/11/01 01:45:38;;;;;;;;;0.00;0.00;;;;;;;;5124750;27;9650;-78
2022/11/01 01:48:14;;;;;;;;;1.75;0.00;;;;;;;;5120751;27;8980;-79
2022/11/01 01:50:48;;;;;;;;;0.00;0.00;;;;;;;;5126041;27;8962;-79
2022/11/01 01:53:20;;;;;;;;;2.50;0.00;;;;;;;;5107524;27;8870;-78
2022/11/01 01:55:53;;;;;;;;;0.00;0.00;;;;;;;;5122109;27;8874;-78
2022/11/01 01:58:26;;;;;;;;;0.00;0.00;;;;;;;;5121935;27;8863;-79
2022/11/01 02:00:54;;;;;;;;;0.00;0.00;;;;;;;;5123206;27;8846;-79
2022/11/01 02:03:22;;;;;;;;;0.00;0.00;;;;;;;;5120940;27;8963;-79
2022/11/01 02:05:55;;;;;;;;;1.00;0.00;;;;;;;;5105589;27;8956;-79
2022/11/01 02:08:26;;;;;;;;;0.00;0.00;;;;;;;;5120679;27;8811;-79
2022/11/01 02:10:55;;;;;;;;;0.00;0.00;;;;;;;;5104153;27;8879;-79
2022/11/01 02:13:23;;;;;;;;;0.00;0.00;;;;;;;;5121279;27;8827;-79
2022/11/01 02:16:14;;;;;;;;;0.00;0.00;;;;;;;;5102524;27;8940;-79
2022/11/01 02:18:47;;;;;;;;;0.00;0.00;;;;;;;;5102054;27;8924;-79
2022/11/01 02:21:41;;;;;;;;;0.00;0.00;;;;;;;;5122722;27;8824;-80
2022/11/01 02:24:46;;;;;;;;;0.00;0.00;;;;;;;;5117503;27;8988;-79
2022/11/01 02:27:21;;;;;;;;;0.00;0.00;;;;;;;;5126097;27;8926;-80
2022/11/01 02:30:04;;;;;;;;;0.00;0.00;;;;;;;;5117507;27;8854;-79
2022/11/01 02:32:39;;;;;;;;;0.00;0.00;;;;;;;;5120261;27;8832;-79
2022/11/01 02:35:12;;;;;;;;;0.00;0.00;;;;;;;;5124622;27;8886;-79
2022/11/01 02:37:45;;;;;;;;;2.50;0.00;;;;;;;;5128105;27;8867;-79
2022/11/01 02:40:15;;;;;;;;;0.00;0.00;;;;;;;;5117012;27;8819;-79
2022/11/01 02:42:44;;;;;;;;;0.00;0.00;;;;;;;;5122071;27;8851;-79
2022/11/01 02:45:26;;;;;;;;;1.50;0.00;;;;;;;;5125794;27;8836;-79
2022/11/01 02:47:56;;;;;;;;;0.00;0.00;;;;;;;;5124456;27;8916;-79
2022/11/01 02:50:25;;;;;;;;;0.00;0.00;;;;;;;;5120488;27;8845;-79
2022/11/01 02:52:54;;;;;;;;;0.00;0.00;;;;;;;;5106054;27;8830;-79
2022/11/01 02:55:34;;;;;;;;;0.00;0.00;;;;;;;;5104975;27;8825;-79
2022/11/01 02:58:04;;;;;;;;;0.00;0.00;;;;;;;;5120350;27;8810;-79
2022/11/01 03:00:33;;;;;;;;;0.00;0.00;;;;;;;;5105500;27;8977;-79
2022/11/01 03:03:10;;;;;;;;;0.25;0.00;;;;;;;;5106322;27;8866;-79
2022/11/01 03:05:51;;;;;;;;;0.00;0.00;;;;;;;;5106529;27;8842;-78
2022/11/01 03:08:23;;;;;;;;;0.00;0.00;;;;;;;;5124181;27;8955;-78
2022/11/01 03:10:53;;;;;;;;;2.00;0.50;;;;;;;;5120864;27;8990;-79
2022/11/01 03:13:32;;;;;;;;;4.25;2.75;;;;;;;;5127654;27;8895;-79
2022/11/01 03:16:08;;;;;;;;;16.00;16.00;;;;;;;;5125218;27;8824;-79
2022/11/01 03:18:45;;;;;;;;;23.00;23.00;;;;;;;;5125067;27;9381;-79
2022/11/01 03:21:18;;;;;;;;;25.75;25.75;;;;;;;;5125035;27;9619;-79
2022/11/01 03:23:49;;;;;;;;;13.33;13.33;;;;;;;;5123568;27;9575;-79
2022/11/01 03:26:20;;;;;;;;;2.67;1.00;;;;;;;;5109661;27;9592;-78
2022/11/01 03:28:51;;;;;;;;;0.00;0.00;;;;;;;;5124970;27;9100;-79
2022/11/01 03:31:21;;;;;;;;;0.00;0.00;;;;;;;;5122932;27;8862;-79
2022/11/01 03:33:53;;;;;;;;;0.00;0.00;;;;;;;;5110086;27;8836;-78
2022/11/01 03:36:22;;;;;;;;;0.00;0.00;;;;;;;;5126521;27;8824;-77
2022/11/01 03:38:53;;;;;;;;;0.00;0.00;;;;;;;;5123397;27;8888;-79
2022/11/01 03:41:22;;;;;;;;;0.00;0.00;;;;;;;;5134741;27;8938;-77
2022/11/01 03:43:51;;;;;;;;;0.00;0.00;;;;;;;;5130851;27;8836;-79
2022/11/01 03:46:18;;;;;;;;;0.00;0.00;;;;;;;;5125748;27;8859;-78
2022/11/01 03:48:46;;;;;;;;;0.00;0.00;;;;;;;;5123432;27;8858;-78
2022/11/01 03:51:15;;;;;;;;;0.00;0.00;;;;;;;;5110725;27;8871;-78
2022/11/01 03:53:42;;;;;;;;;1.00;0.00;;;;;;;;5127717;27;8844;-77
2022/11/01 03:56:10;;;;;;;;;1.25;0.00;;;;;;;;5121154;27;8861;-75
2022/11/01 03:58:44;;;;;;;;;0.00;0.00;;;;;;;;5127361;27;8836;-77
2022/11/01 04:01:13;;;;;;;;;1.00;0.00;;;;;;;;5108221;27;8846;-78
2022/11/01 04:03:41;;;;;;;;;1.75;0.00;;;;;;;;5126754;27;8835;-77
2022/11/01 04:06:09;;;;;;;;;0.25;0.00;;;;;;;;5131846;27;8852;-77
2022/11/01 04:08:40;;;;;;;;;0.00;0.00;;;;;;;;5110952;27;8983;-78
2022/11/01 04:11:08;;;;;;;;;1.50;0.00;;;;;;;;5142480;27;8856;-76
2022/11/01 04:13:47;;;;;;;;;0.00;0.00;;;;;;;;5128076;27;8831;-77
2022/11/01 04:21:45;;;;;;;;;1.25;0.00;;;;;;;;5108141;27;9614;-78
2022/11/01 04:24:19;;;;;;;;;0.00;0.00;;;;;;;;5108791;27;8929;-80
2022/11/01 04:26:47;;;;;;;;;0.00;0.00;;;;;;;;5125146;27;8840;-82
2022/11/01 04:29:15;;;;;;;;;1.75;1.00;;;;;;;;5097190;27;8904;-79
2022/11/01 04:31:42;;;;;;;;;0.00;0.00;;;;;;;;5110121;27;9197;-81
2022/11/01 04:34:10;;;;;;;;;0.75;0.75;;;;;;;;5110927;27;8871;-79
2022/11/01 04:36:40;;;;;;;;;2.00;0.50;;;;;;;;5131008;27;8891;-83
2022/11/01 04:39:09;;;;;;;;;0.00;0.00;;;;;;;;5112398;27;8858;-77
2022/11/01 04:41:40;;;;;;;;;2.00;1.00;;;;;;;;5109330;27;8844;-80
2022/11/01 04:44:13;;;;;;;;;1.00;0.00;;;;;;;;5128294;27;8998;-81
2022/11/01 04:46:57;;;;;;;;;0.00;0.00;;;;;;;;5118812;27;8962;-81
2022/11/01 04:49:25;;;;;;;;;1.00;1.00;;;;;;;;5120682;27;8862;-78
2022/11/01 04:51:52;;;;;;;;;0.33;0.00;;;;;;;;5108872;27;8949;-79
2022/11/01 04:54:20;;;;;;;;;0.00;0.00;;;;;;;;5124424;27;9007;-79
2022/11/01 04:56:49;;;;;;;;;2.67;1.00;;;;;;;;5115205;27;8916;-74
2022/11/01 04:59:18;;;;;;;;;0.00;0.00;;;;;;;;5118085;27;8939;-76
2022/11/01 05:01:45;;;;;;;;;0.00;0.00;;;;;;;;5118662;27;8931;-74
2022/11/01 05:04:13;;;;;;;;;3.00;0.00;;;;;;;;5105706;27;9097;-72
2022/11/01 05:06:40;;;;;;;;;1.67;0.00;;;;;;;;5107310;27;9084;-72
2022/11/01 05:09:08;;;;;;;;;0.00;0.00;;;;;;;;5090951;27;9758;-72
2022/11/01 05:11:35;;;;;;;;;1.67;1.67;;;;;;;;5130037;27;9056;-72
2022/11/01 05:14:04;;;;;;;;;0.00;0.00;;;;;;;;5123929;27;9150;-72
2022/11/01 05:16:31;;;;;;;;;1.67;1.00;;;;;;;;5107322;27;8905;-71
2022/11/01 05:18:58;;;;;;;;;0.00;0.00;;;;;;;;5104062;27;9900;-72
2022/11/01 05:21:26;;;;;;;;;2.00;0.00;;;;;;;;5129892;27;9060;-73
2022/11/01 05:23:53;;;;;;;;;0.67;0.67;;;;;;;;5123822;27;9057;-72
2022/11/01 05:26:20;;;;;;;;;0.67;0.67;;;;;;;;5127843;27;9155;-72
2022/11/01 05:28:48;;;;;;;;;1.33;1.00;;;;;;;;5128874;27;9015;-72
2022/11/01 05:31:17;;;;;;;;;1.33;0.00;;;;;;;;5106843;27;9236;-72
2022/11/01 05:33:44;;;;;;;;;0.00;0.00;;;;;;;;5130636;27;9193;-73
2022/11/01 05:36:12;;;;;;;;;0.00;0.00;;;;;;;;5128211;27;9146;-73
2022/11/01 05:38:39;;;;;;;;;2.67;0.00;;;;;;;;5129831;27;9277;-72
2022/11/01 05:41:07;;;;;;;;;0.00;0.00;;;;;;;;5123954;27;10012;-72
2022/11/01 05:43:34;;;;;;;;;0.00;0.00;;;;;;;;5107810;27;9280;-72
2022/11/01 05:46:04;;;;;;;;;0.00;0.00;;;;;;;;5126039;27;9302;-72
2022/11/01 05:48:33;;;;;;;;;0.00;0.00;;;;;;;;5124953;27;9334;-72
2022/11/01 05:51:01;;;;;;;;;0.67;0.00;;;;;;;;5124002;27;9365;-73
2022/11/01 05:53:28;;;;;;;;;1.00;0.67;;;;;;;;5124696;27;9258;-72
2022/11/01 05:55:57;;;;;;;;;0.00;0.00;;;;;;;;5107678;27;9245;-72
2022/11/01 05:58:24;;;;;;;;;1.33;1.00;;;;;;;;5125231;27;9157;-71
2022/11/01 06:00:53;;;;;;;;;3.00;0.67;;;;;;;;5128149;27;9230;-72
2022/11/01 06:03:21;;;;;;;;;0.00;0.00;;;;;;;;5127275;27;9232;-73
2022/11/01 06:05:49;;;;;;;;;1.00;1.00;;;;;;;;5128385;27;9368;-72
2022/11/01 06:08:17;;;;;;;;;0.00;0.00;;;;;;;;5125983;27;9303;-72
2022/11/01 06:10:44;;;;;;;;;1.00;1.00;;;;;;;;5128449;27;9204;-72
2022/11/01 06:13:11;;;;;;;;;1.00;1.00;;;;;;;;5129607;27;9428;-72
2022/11/01 06:15:39;;;;;;;;;1.67;1.67;;;;;;;;5124891;27;9399;-72
2022/11/01 06:18:06;;;;;;;;;1.00;1.00;;;;;;;;5125252;27;9369;-72
2022/11/01 06:20:35;;;;;;;;;1.67;0.00;;;;;;;;5125924;27;9295;-72
2022/11/01 06:23:09;;;;;;;;;3.00;1.00;;;;;;;;5126157;27;9324;-72
2022/11/01 06:25:40;;;;;;;;;1.00;0.00;;;;;;;;5125348;27;9323;-72
2022/11/01 06:28:10;;;;;;;;;2.00;1.00;;;;;;;;5125664;27;9247;-72
2022/11/01 06:30:39;;;;;;;;;1.00;1.00;;;;;;;;5123761;27;9324;-72
2022/11/01 06:33:08;;;;;;;;;3.00;0.00;;;;;;;;5109498;27;9249;-73
2022/11/01 06:35:35;;;;;;;;;0.67;0.67;;;;;;;;5127993;27;9363;-72
2022/11/01 06:38:05;;;;;;;;;1.00;1.00;;;;;;;;5128056;27;9413;-72
2022/11/01 06:40:32;;;;;;;;;2.00;0.00;;;;;;;;5128069;27;9312;-72
2022/11/01 06:43:01;;;;;;;;;0.00;0.00;;;;;;;;5121786;27;9275;-72
2022/11/01 06:45:28;;;;;;;;;1.00;1.00;;;;;;;;5124369;27;9298;-72
2022/11/01 06:47:56;;;;;;;;;3.00;0.00;;;;;;;;5126260;27;9242;-73
2022/11/01 06:50:23;;;;;;;;;0.00;0.00;;;;;;;;5123157;27;9201;-72
2022/11/01 06:52:51;;;;;;;;;0.00;0.00;;;;;;;;5122709;27;9227;-72
2022/11/01 06:55:20;;;;;;;;;3.67;0.33;;;;;;;;5124019;27;9147;-72
2022/11/01 06:57:54;;;;;;;;;2.00;0.00;;;;;;;;5105723;27;9325;-72
2022/11/01 07:00:22;;;;;;;;;2.00;1.00;;;;;;;;5124837;27;9224;-72
2022/11/01 07:02:49;;;;;;;;;3.67;1.33;;;;;;;;5104196;27;9282;-72
2022/11/01 07:05:17;;;;;;;;;0.00;0.00;;;;;;;;5105435;27;10107;-73
2022/11/01 07:07:44;;;;;;;;;0.00;0.00;;;;;;;;5123102;27;9262;-72
2022/11/01 07:10:12;;;;;;;;;2.00;0.00;;;;;;;;5126186;27;9238;-72
2022/11/01 07:12:40;;;;;;;;;2.33;2.00;;;;;;;;5127911;27;10088;-73
2022/11/01 07:15:09;;;;;;;;;2.00;0.00;;;;;;;;5125838;27;9233;-71
2022/11/01 07:17:37;;;;;;;;;1.33;0.00;;;;;;;;5126436;27;9316;-72
2022/11/01 07:20:05;;;;;;;;;0.00;0.00;;;;;;;;5125448;27;9523;-72
2022/11/01 07:22:33;;;;;;;;;0.00;0.00;;;;;;;;5106583;27;9122;-72
2022/11/01 07:25:00;;;;;;;;;2.00;0.00;;;;;;;;5125747;27;9415;-72
2022/11/01 07:27:28;;;;;;;;;0.67;0.67;;;;;;;;5123567;27;9169;-72
2022/11/01 07:29:56;;;;;;;;;0.67;0.67;;;;;;;;5126075;27;9212;-72
2022/11/01 07:32:24;;;;;;;;;4.00;2.00;;;;;;;;5103796;27;9994;-72
2022/11/01 07:34:51;;;;;;;;;2.33;1.00;;;;;;;;5126840;27;9235;-72
2022/11/01 07:37:19;;;;;;;;;1.00;1.00;;;;;;;;5129657;27;9270;-72
2022/11/01 07:39:46;;;;;;;;;3.33;0.00;;;;;;;;5127917;27;9307;-72
2022/11/01 07:42:14;;;;;;;;;2.00;0.00;;;;;;;;5127851;27;9161;-72
2022/11/01 07:44:44;;;;;;;;;0.00;0.00;;;;;;;;5092647;27;9056;-72
2022/11/01 07:47:13;;;;;;;;;2.00;0.00;;;;;;;;5130741;27;9147;-73
2022/11/01 07:49:41;;;;;;;;;2.00;0.00;;;;;;;;5129843;27;9200;-72
2022/11/01 07:52:08;;;;;;;;;1.00;1.00;;;;;;;;5130177;27;9266;-72
2022/11/01 07:54:35;;;;;;;;;1.00;1.00;;;;;;;;5132967;27;9153;-72
2022/11/01 07:57:03;;;;;;;;;1.67;1.00;;;;;;;;5126379;27;9149;-72
2022/11/01 07:59:30;;;;;;;;;1.33;0.67;;;;;;;;5126623;27;9121;-72
2022/11/01 08:01:57;;;;;;;;;1.00;1.00;;;;;;;;5129067;27;9075;-72
2022/11/01 08:04:26;;;;;;;;;1.00;1.00;;;;;;;;5128001;27;8990;-72
2022/11/01 08:06:54;;;;;;;;;0.33;0.33;;;;;;;;5129075;27;8955;-72
2022/11/01 08:09:22;;;;;;;;;1.00;1.00;;;;;;;;5109897;27;8999;-72
2022/11/01 08:11:49;;;;;;;;;5.33;2.00;;;;;;;;5108784;27;8999;-72
2022/11/01 08:14:16;;;;;;;;;3.00;2.00;;;;;;;;5108845;27;9076;-72
2022/11/01 08:16:44;;;;;;;;;1.67;1.67;;;;;;;;5127899;27;9055;-72
2022/11/01 08:19:12;;;;;;;;;1.67;1.67;;;;;;;;5131095;27;9043;-72
2022/11/01 08:21:40;;;;;;;;;1.00;0.75;;;;;;;;5107471;27;8975;-72
2022/11/01 08:24:08;;;;;;;;;4.00;1.00;;;;;;;;5130219;27;8860;-72
2022/11/01 08:26:36;;;;;;;;;0.25;0.25;;;;;;;;5110307;27;9031;-72
2022/11/01 08:29:03;;;;;;;;;1.00;1.00;;;;;;;;5127201;27;8862;-73
2022/11/01 08:31:30;;;;;;;;;0.00;0.00;;;;;;;;5129015;27;8919;-72
2022/11/01 08:33:58;;;;;;;;;2.00;1.00;;;;;;;;5128319;27;8844;-72
2022/11/01 08:36:25;;;;;;;;;0.25;0.25;;;;;;;;5127328;27;8881;-72
2022/11/01 08:38:55;;;;;;;;;1.25;0.50;;;;;;;;5130515;27;8863;-72
2022/11/01 08:41:22;;;;;;;;;0.50;0.00;;;;;;;;5109315;27;8850;-72
2022/11/01 08:43:49;;;;;;;;;1.00;0.50;;;;;;;;5128544;27;8807;-72
2022/11/01 08:46:17;;;;;;;;;2.50;0.75;;;;;;;;5129239;27;8850;-72
2022/11/01 08:48:44;;;;;;;;;1.00;1.00;;;;;;;;5107973;27;8860;-72
2022/11/01 08:51:12;;;;;;;;;0.25;0.25;;;;;;;;5108478;27;8824;-72
2022/11/01 08:53:39;;;;;;;;;3.00;1.67;;;;;;;;5125406;27;8824;-73
2022/11/01 08:56:08;;;;;;;;;3.00;3.00;;;;;;;;5128252;27;9081;-72
2022/11/01 08:58:37;;;;;;;;;1.33;1.00;;;;;;;;5127822;27;9145;-72
2022/11/01 09:01:05;;;;;;;;;2.67;1.67;;;;;;;;5129326;27;9164;-72
2022/11/01 09:03:32;;;;;;;;;5.00;3.00;;;;;;;;5124806;27;9708;-72
2022/11/01 09:06:00;;;;;;;;;4.33;4.33;;;;;;;;5107870;27;9157;-72
2022/11/01 09:08:28;;;;;;;;;2.67;2.67;;;;;;;;5107930;27;9165;-72
2022/11/01 09:10:58;;;;;;;;;2.25;0.50;;;;;;;;5127311;27;9054;-72
2022/11/01 09:13:26;;;;;;;;;1.50;0.25;;;;;;;;5129084;27;8812;-72
2022/11/01 09:15:54;;;;;;;;;0.00;0.00;;;;;;;;5125596;27;8866;-72
2022/11/01 09:18:21;;;;;;;;;0.00;0.00;;;;;;;;5129008;27;8962;-71
2022/11/01 09:20:54;;;;;;;;;0.00;0.00;;;;;;;;5126952;27;8842;-72
2022/11/01 09:23:21;;;;;;;;;1.00;1.00;;;;;;;;5123292;27;8873;-72
2022/11/01 09:25:49;;;;;;;;;1.00;1.00;;;;;;;;5110303;27;8850;-72
2022/11/01 09:28:16;;;;;;;;;1.25;1.25;;;;;;;;5127773;27;8852;-72
2022/11/01 09:30:45;;;;;;;;;2.00;1.00;;;;;;;;5107467;27;8986;-73
2022/11/01 09:33:13;;;;;;;;;1.00;1.00;;;;;;;;5107648;27;8862;-72
2022/11/01 09:35:40;;;;;;;;;0.25;0.25;;;;;;;;5127400;27;8804;-72
2022/11/01 09:38:07;;;;;;;;;3.00;0.75;;;;;;;;5124740;27;8954;-72
2022/11/01 09:40:42;;;;;;;;;2.00;1.00;;;;;;;;5124255;27;8956;-71
2022/11/01 09:43:11;;;;;;;;;2.75;1.50;;;;;;;;5128423;27;8870;-73
2022/11/01 09:45:39;;;;;;;;;1.25;1.25;;;;;;;;5130269;27;8873;-72
2022/11/01 09:48:08;;;;;;;;;1.50;0.75;;;;;;;;5124546;27;8847;-72
2022/11/01 09:50:42;;;;;;;;;2.00;0.50;;;;;;;;5131350;27;8967;-72
2022/11/01 09:53:17;;;;;;;;;2.50;1.50;;;;;;;;5121923;27;8854;-72
2022/11/01 09:55:51;;;;;;;;;0.00;0.00;;;;;;;;5125683;27;8840;-70
2022/11/01 09:58:28;;;;;;;;;0.50;0.50;;;;;;;;5129762;27;8840;-71
2022/11/01 10:01:00;;;;;;;;;2.50;1.00;;;;;;;;5124558;27;8855;-71
2022/11/01 10:03:41;;;;;;;;;2.50;1.25;;;;;;;;5125913;27;8836;-71
2022/11/01 10:06:15;;;;;;;;;2.75;1.00;;;;;;;;5122981;27;8936;-71
2022/11/01 10:08:54;;;;;;;;;2.50;1.00;;;;;;;;5126223;27;9431;-72
2022/11/01 10:11:35;;;;;;;;;0.25;0.25;;;;;;;;5124385;27;8818;-71
2022/11/01 10:14:11;;;;;;;;;0.00;0.00;;;;;;;;5123680;27;8831;-71
2022/11/01 10:16:44;;;;;;;;;0.00;0.00;;;;;;;;5128047;27;9666;-71
2022/11/01 10:19:15;;;;;;;;;0.00;0.00;;;;;;;;5129846;27;8828;-71
2022/11/01 10:21:46;;;;;;;;;1.00;1.00;;;;;;;;5127575;27;9765;-71
2022/11/01 10:24:22;;;;;;;;;1.50;0.50;;;;;;;;5125317;27;8871;-71
2022/11/01 10:26:54;;;;;;;;;2.00;0.75;;;;;;;;5125092;27;8832;-72
2022/11/01 10:29:27;;;;;;;;;3.25;1.50;;;;;;;;5122895;27;8872;-71
2022/11/01 10:31:55;;;;;;;;;0.25;0.00;;;;;;;;5121820;27;8873;-72
2022/11/01 10:34:27;;;;;;;;;0.00;0.00;;;;;;;;5126044;27;10202;-71
2022/11/01 10:36:58;;;;;;;;;1.00;1.00;;;;;;;;5125626;27;8831;-71
2022/11/01 10:39:35;;;;;;;;;1.25;0.00;;;;;;;;5107057;27;8873;-70
2022/11/01 10:42:09;;;;;;;;;1.50;0.00;;;;;;;;5127355;27;8857;-71
2022/11/01 10:44:40;;;;;;;;;1.75;1.75;;;;;;;;5124723;27;8911;-71
2022/11/01 10:47:11;;;;;;;;;1.75;0.00;;;;;;;;5126619;27;8839;-71
2022/11/01 10:49:45;;;;;;;;;1.50;0.50;;;;;;;;5124328;27;8847;-71
2022/11/01 10:52:15;;;;;;;;;0.00;0.00;;;;;;;;5122724;27;8903;-71
2022/11/01 10:54:45;;;;;;;;;1.00;1.00;;;;;;;;5129176;27;8815;-71
2022/11/01 10:57:17;;;;;;;;;1.00;0.00;;;;;;;;5126985;27;9675;-71
2022/11/01 10:59:46;;;;;;;;;2.00;1.00;;;;;;;;5105935;27;8799;-71
2022/11/01 11:02:24;;;;;;;;;0.00;0.00;;;;;;;;5124314;27;8827;-72
2022/11/01 11:04:53;;;;;;;;;4.00;0.00;;;;;;;;5125354;27;8843;-71
2022/11/01 11:07:22;;;;;;;;;1.50;0.50;;;;;;;;5106082;27;8904;-72
2022/11/01 11:09:50;;;;;;;;;3.25;0.75;;;;;;;;5125292;27;8874;-71
2022/11/01 11:12:19;;;;;;;;;4.50;1.00;;;;;;;;5128706;27;8968;-72
2022/11/01 11:14:49;;;;;;;;;2.00;1.00;;;;;;;;5125113;27;8836;-71
2022/11/01 11:17:21;;;;;;;;;1.25;1.00;;;;;;;;5123077;27;8842;-71
2022/11/01 11:20:16;;;;;;;;;0.00;0.00;;;;;;;;5123603;27;8952;-71
2022/11/01 11:22:44;;;;;;;;;0.00;0.00;;;;;;;;5127088;27;8843;-71
2022/11/01 11:25:16;;;;;;;;;1.00;1.00;;;;;;;;5124587;27;8840;-71
2022/11/01 11:27:46;;;;;;;;;0.75;0.75;;;;;;;;5125102;27;8839;-71
2022/11/01 11:30:26;;;;;;;;;0.00;0.00;;;;;;;;5123439;27;8860;-72
2022/11/01 11:32:53;;;;;;;;;0.00;0.00;;;;;;;;5126429;27;9720;-71
2022/11/01 11:35:23;;;;;;;;;0.00;0.00;;;;;;;;5127641;27;8820;-71
2022/11/01 11:37:54;;;;;;;;;1.20;1.00;;;;;;;;5123655;27;8852;-71
2022/11/01 11:40:23;;;;;;;;;0.00;0.00;;;;;;;;5123532;27;8857;-71
2022/11/01 11:42:51;;;;;;;;;1.00;1.00;;;;;;;;5125562;27;8849;-71
2022/11/01 11:45:23;;;;;;;;;2.00;0.00;;;;;;;;5128719;27;8950;-70
2022/11/01 11:47:54;;;;;;;;;2.00;2.00;;;;;;;;5123261;27;9578;-71
2022/11/01 11:50:33;;;;;;;;;1.80;0.00;;;;;;;;5122842;27;8831;-71
2022/11/01 11:53:17;;;;;;;;;2.00;0.20;;;;;;;;5126129;27;8835;-72
2022/11/01 11:55:47;;;;;;;;;0.00;0.00;;;;;;;;5118338;27;8922;-71
2022/11/01 11:58:33;;;;;;;;;1.50;0.75;;;;;;;;5125122;27;8843;-71
2022/11/01 12:01:06;;;;;;;;;0.00;0.00;;;;;;;;5129603;27;8838;-71
2022/11/01 12:03:44;;;;;;;;;1.20;0.00;;;;;;;;5126770;27;8804;-71
2022/11/01 12:06:18;;;;;;;;;0.20;0.20;;;;;;;;5109005;27;8830;-72
2022/11/01 12:08:47;;;;;;;;;0.00;0.00;;;;;;;;5124154;27;9207;-72
2022/11/01 12:11:16;;;;;;;;;1.50;0.00;;;;;;;;5123786;27;8840;-71
2022/11/01 12:13:44;;;;;;;;;1.25;1.25;;;;;;;;5126989;27;8836;-71
2022/11/01 12:16:23;;;;;;;;;0.00;0.00;;;;;;;;5128410;27;8820;-71
2022/11/01 12:18:56;;;;;;;;;0.25;0.25;;;;;;;;5122473;27;8830;-71
2022/11/01 12:21:39;;;;;;;;;0.00;0.00;;;;;;;;5127289;27;9632;-71
2022/11/01 12:24:15;;;;;;;;;0.25;0.25;;;;;;;;5126280;27;8837;-71
2022/11/01 12:26:43;;;;;;;;;0.20;0.00;;;;;;;;5124159;27;9698;-72
2022/11/01 12:29:18;;;;;;;;;1.00;0.00;;;;;;;;5106204;27;8822;-71
2022/11/01 12:31:45;;;;;;;;;1.20;0.40;;;;;;;;5129490;27;9584;-71
2022/11/01 12:34:19;;;;;;;;;0.00;0.00;;;;;;;;5108810;27;8942;-71
2022/11/01 12:36:54;;;;;;;;;1.00;1.00;;;;;;;;5126811;27;8848;-71
2022/11/01 12:39:34;;;;;;;;;0.40;0.40;;;;;;;;5127497;27;8882;-72
2022/11/01 12:42:04;;;;;;;;;0.50;0.00;;;;;;;;5128355;27;8836;-71
2022/11/01 12:44:37;;;;;;;;;1.20;0.00;;;;;;;;5123233;27;8847;-71
2022/11/01 12:47:09;;;;;;;;;0.00;0.00;;;;;;;;5125815;27;9613;-72
2022/11/01 12:49:44;;;;;;;;;0.00;0.00;;;;;;;;5127172;27;8848;-71
2022/11/01 12:52:19;;;;;;;;;3.00;1.00;;;;;;;;5128235;27;8870;-71
2022/11/01 12:54:57;;;;;;;;;0.00;0.00;;;;;;;;5125616;27;8840;-72
2022/11/01 12:57:25;;;;;;;;;0.40;0.00;;;;;;;;5128680;27;8850;-72
2022/11/01 12:59:53;;;;;;;;;0.00;0.00;;;;;;;;5126557;27;8856;-72
2022/11/01 13:02:29;;;;;;;;;1.00;1.00;;;;;;;;5125293;27;8840;-71
2022/11/01 13:05:01;;;;;;;;;1.40;0.80;;;;;;;;5127327;27;8845;-72
2022/11/01 13:07:42;;;;;;;;;1.00;0.00;;;;;;;;5124127;27;9452;-71
2022/11/01 13:10:14;;;;;;;;;0.20;0.20;;;;;;;;5107165;27;8844;-72
2022/11/01 13:12:49;;;;;;;;;0.00;0.00;;;;;;;;5130196;27;8815;-72
2022/11/01 13:15:21;;;;;;;;;1.00;1.00;;;;;;;;5126730;27;8846;-72
2022/11/01 13:17:53;;;;;;;;;2.50;1.00;;;;;;;;5105359;27;8840;-72
2022/11/01 13:20:37;;;;;;;;;0.00;0.00;;;;;;;;5107184;27;8846;-73
2022/11/01 13:23:15;;;;;;;;;0.00;0.00;;;;;;;;5124459;27;8851;-72
2022/11/01 13:25:47;;;;;;;;;0.25;0.25;;;;;;;;5126986;27;8856;-72
2022/11/01 13:28:40;;;;;;;;;2.25;1.00;;;;;;;;5125938;27;8842;-73
2022/11/01 13:31:16;;;;;;;;;0.00;0.00;;;;;;;;5119038;27;8864;-72
2022/11/01 13:33:48;;;;;;;;;0.25;0.00;;;;;;;;5124653;27;8900;-73
2022/11/01 13:36:20;;;;;;;;;0.00;0.00;;;;;;;;5125063;27;8831;-72
2022/11/01 13:38:56;;;;;;;;;0.00;0.00;;;;;;;;5124861;27;8836;-72
2022/11/01 13:41:30;;;;;;;;;0.50;0.50;;;;;;;;5104262;27;8850;-73
2022/11/01 13:43:59;;;;;;;;;1.00;0.00;;;;;;;;5125952;27;8963;-71
2022/11/01 13:46:41;;;;;;;;;0.25;0.25;;;;;;;;5125954;27;8840;-69
2022/11/01 13:49:27;;;;;;;;;0.00;0.00;;;;;;;;5106859;27;8924;-73
2022/11/01 13:52:00;;;;;;;;;1.00;1.00;;;;;;;;5118704;27;8954;-72
2022/11/01 13:54:33;;;;;;;;;0.00;0.00;;;;;;;;5125389;27;8840;-73
2022/11/01 13:57:10;;;;;;;;;0.50;0.50;;;;;;;;5107780;27;8824;-73
2022/11/01 13:59:45;;;;;;;;;0.75;0.75;;;;;;;;5128119;27;8857;-72
2022/11/01 14:02:55;;;;;;;;;0.00;0.00;;;;;;;;5108067;27;8855;-73
2022/11/01 14:05:35;;;;;;;;;0.00;0.00;;;;;;;;5125463;27;8851;-73
2022/11/01 14:08:30;;;;;;;;;0.50;0.50;;;;;;;;5124754;27;8839;-73
2022/11/01 14:10:59;;;;;;;;;1.00;0.00;;;;;;;;5061889;27;9953;-73
2022/11/01 14:13:36;;;;;;;;;2.00;0.50;;;;;;;;5124720;27;8792;-74
2022/11/01 14:16:21;;;;;;;;;0.00;0.00;;;;;;;;5127745;27;8856;-72
2022/11/01 14:19:13;;;;;;;;;0.00;0.00;;;;;;;;5121958;27;8855;-73
2022/11/01 14:21:42;;;;;;;;;0.00;0.00;;;;;;;;5124153;27;8847;-74
2022/11/01 14:24:21;;;;;;;;;1.00;1.00;;;;;;;;5125187;27;8844;-73
2022/11/01 14:27:02;;;;;;;;;0.00;0.00;;;;;;;;5104904;27;8899;-73
2022/11/01 14:29:30;;;;;;;;;0.75;0.00;;;;;;;;5127647;27;8847;-73
2022/11/01 14:31:58;;;;;;;;;2.00;0.50;;;;;;;;5121362;27;8832;-73
2022/11/01 14:34:34;;;;;;;;;0.25;0.25;;;;;;;;5127820;27;8946;-73
2022/11/01 14:37:25;;;;;;;;;0.00;0.00;;;;;;;;5123581;27;8831;-73
2022/11/01 14:40:20;;;;;;;;;0.00;0.00;;;;;;;;5126244;27;8862;-74
2022/11/01 14:42:51;;;;;;;;;0.00;0.00;;;;;;;;5115804;27;8848;-74
2022/11/01 14:45:32;;;;;;;;;1.00;0.00;;;;;;;;5127325;27;8854;-73
2022/11/01 14:48:06;;;;;;;;;0.75;0.75;;;;;;;;5123491;27;9609;-73
2022/11/01 14:50:42;;;;;;;;;0.50;0.00;;;;;;;;5124477;27;8836;-73
2022/11/01 14:53:16;;;;;;;;;1.00;1.00;;;;;;;;5089683;27;8847;-75
2022/11/01 14:55:44;;;;;;;;;3.75;0.75;;;;;;;;5122426;27;8820;-74
2022/11/01 14:58:21;;;;;;;;;0.00;0.00;;;;;;;;5127122;27;9140;-72
2022/11/01 15:00:50;;;;;;;;;0.00;0.00;;;;;;;;5123088;27;8849;-72
2022/11/01 15:03:18;;;;;;;;;1.75;1.00;;;;;;;;5130512;27;8868;-72
2022/11/01 15:05:47;;;;;;;;;0.00;0.00;;;;;;;;5122891;27;8824;-72
2022/11/01 15:08:37;;;;;;;;;0.00;0.00;;;;;;;;5127939;27;8912;-73
2022/11/01 15:11:07;;;;;;;;;1.00;1.00;;;;;;;;5122494;27;8844;-72
2022/11/01 15:13:41;;;;;;;;;0.00;0.00;;;;;;;;5104487;27;8932;-73
2022/11/01 15:16:15;;;;;;;;;0.75;0.75;;;;;;;;5120081;27;8843;-73
2022/11/01 15:18:47;;;;;;;;;0.00;0.00;;;;;;;;5102965;27;8862;-73
2022/11/01 15:21:18;;;;;;;;;2.50;1.00;;;;;;;;5126909;27;8849;-74
2022/11/01 15:23:46;;;;;;;;;0.00;0.00;;;;;;;;5123981;27;8799;-73
2022/11/01 15:26:17;;;;;;;;;0.25;0.25;;;;;;;;5126661;27;8875;-74